createdAt,value
2022-08-30T00:00:01.573Z,2.80
2022-08-30T00:02:30.340Z,2.60
2022-08-30T00:05:01.686Z,2.70
2022-08-30T00:07:30.017Z,2.60
2022-08-30T00:09:58.457Z,2.88
2022-08-30T00:12:27.071Z,2.78
2022-08-30T00:14:56.374Z,2.60
2022-08-30T00:17:25.294Z,2.63
2022-08-30T00:19:53.546Z,2.60
2022-08-30T00:22:22.590Z,2.50
2022-08-30T00:24:51.203Z,2.50
2022-08-30T00:27:19.415Z,2.70
2022-08-30T00:29:47.797Z,2.50
2022-08-30T00:32:16.469Z,2.55
2022-08-30T00:34:44.719Z,2.67
2022-08-30T00:37:13.348Z,2.20
2022-08-30T00:39:41.891Z,2.38
2022-08-30T00:42:11.520Z,2.60
2022-08-30T00:44:41.049Z,2.30
2022-08-30T00:47:10.060Z,2.42
2022-08-30T00:49:42.167Z,2.40
2022-08-30T00:52:12.685Z,2.20
2022-08-30T00:54:45.095Z,2.33
2022-08-30T00:57:15.631Z,2.72
2022-08-30T00:59:47.764Z,2.80
2022-08-30T01:02:20.921Z,2.50
2022-08-30T01:04:51.661Z,2.40
2022-08-30T01:07:20.102Z,2.30
2022-08-30T01:09:48.484Z,2.13
2022-08-30T01:12:17.306Z,2.08
2022-08-30T01:14:47.513Z,2.45
2022-08-30T01:17:18.356Z,2.50
2022-08-30T01:20:01.532Z,2.47
2022-08-30T01:23:00.520Z,2.20
2022-08-30T01:25:30.723Z,2.15
2022-08-30T01:28:03.559Z,2.20
2022-08-30T01:30:32.635Z,2.10
2022-08-30T01:33:03.848Z,2.15
2022-08-30T01:36:02.752Z,2.40
2022-08-30T01:38:35.802Z,2.15
2022-08-30T01:41:15.589Z,2.20
2022-08-30T01:43:44.501Z,2.17
2022-08-30T01:46:14.943Z,1.88
2022-08-30T01:48:50.337Z,2.10
2022-08-30T01:51:25.327Z,2.08
2022-08-30T01:53:54.172Z,2.28
2022-08-30T01:56:26.570Z,2.25
2022-08-30T01:59:00.402Z,2.15
2022-08-30T02:01:33.491Z,2.13
2022-08-30T02:04:02.877Z,2.10
2022-08-30T02:06:31.364Z,2.03
2022-08-30T02:09:00.150Z,2.00
2022-08-30T02:11:28.574Z,2.10
2022-08-30T02:13:56.958Z,1.90
2022-08-30T02:16:26.380Z,2.10
2022-08-30T02:18:57.257Z,2.03
2022-08-30T02:21:27.868Z,2.20
2022-08-30T02:23:56.378Z,2.20
2022-08-30T02:26:25.630Z,2.00
2022-08-30T02:28:54.075Z,1.80
2022-08-30T02:31:27.233Z,1.83
2022-08-30T02:33:55.459Z,1.92
2022-08-30T02:36:23.758Z,2.10
2022-08-30T02:38:52.364Z,1.92
2022-08-30T02:41:21.638Z,1.90
2022-08-30T02:43:50.383Z,2.10
2022-08-30T02:46:19.060Z,1.83
2022-08-30T02:48:47.451Z,2.03
2022-08-30T02:51:15.750Z,1.98
2022-08-30T02:53:45.225Z,2.00
2022-08-30T02:56:14.390Z,1.80
2022-08-30T02:58:43.823Z,1.92
2022-08-30T03:01:14.287Z,1.85
2022-08-30T03:03:44.460Z,1.95
2022-08-30T03:06:13.690Z,2.00
2022-08-30T03:08:42.345Z,1.98
2022-08-30T03:11:11.202Z,1.88
2022-08-30T03:13:39.653Z,2.13
2022-08-30T03:16:08.699Z,1.65
2022-08-30T03:18:37.493Z,1.77
2022-08-30T03:21:17.101Z,1.70
2022-08-30T03:23:46.017Z,1.70
2022-08-30T03:26:15.096Z,2.15
2022-08-30T03:28:43.615Z,1.65
2022-08-30T03:31:12.321Z,1.70
2022-08-30T03:33:40.839Z,1.88
2022-08-30T03:36:09.584Z,1.55
2022-08-30T03:38:38.607Z,1.70
2022-08-30T03:41:07.524Z,1.75
2022-08-30T03:43:37.582Z,1.80
2022-08-30T03:46:06.355Z,1.80
2022-08-30T03:48:34.673Z,1.45
2022-08-30T03:51:03.395Z,1.45
2022-08-30T03:56:03.362Z,1.75
2022-08-30T03:58:32.166Z,1.90
2022-08-30T04:01:27.382Z,1.60
2022-08-30T04:03:56.774Z,1.70
2022-08-30T04:06:25.473Z,1.75
2022-08-30T04:08:54.232Z,1.60
2022-08-30T04:11:22.420Z,1.73
2022-08-30T04:13:52.024Z,1.55
2022-08-30T04:16:20.700Z,1.60
2022-08-30T04:18:49.199Z,1.70
2022-08-30T04:21:19.052Z,1.70
2022-08-30T04:23:47.494Z,1.70
2022-08-30T04:26:15.900Z,1.48
2022-08-30T04:28:44.347Z,1.63
2022-08-30T04:31:15.632Z,1.60
2022-08-30T04:33:44.764Z,1.70
2022-08-30T04:36:16.459Z,1.58
2022-08-30T04:41:16.569Z,1.50
2022-08-30T04:43:46.855Z,1.58
2022-08-30T04:46:15.323Z,1.40
2022-08-30T04:48:43.951Z,1.60
2022-08-30T04:51:16.215Z,1.60
2022-08-30T04:53:45.767Z,1.40
2022-08-30T04:56:17.947Z,1.48
2022-08-30T04:58:47.500Z,1.58
2022-08-30T05:01:20.086Z,1.58
2022-08-30T05:03:50.012Z,1.40
2022-08-30T05:06:19.317Z,1.60
2022-08-30T05:08:47.839Z,1.60
2022-08-30T05:11:17.142Z,1.60
2022-08-30T05:13:45.749Z,1.50
2022-08-30T05:16:20.554Z,1.67
2022-08-30T05:18:50.548Z,1.80
2022-08-30T05:21:22.681Z,1.45
2022-08-30T05:24:00.625Z,1.33
2022-08-30T05:26:33.164Z,1.30
2022-08-30T05:29:01.789Z,1.42
2022-08-30T05:31:33.482Z,1.45
2022-08-30T05:34:02.402Z,1.42
2022-08-30T05:36:34.304Z,1.48
2022-08-30T05:39:03.134Z,1.70
2022-08-30T05:41:34.600Z,1.45
2022-08-30T05:44:07.124Z,1.50
2022-08-30T05:46:36.983Z,1.63
2022-08-30T05:49:07.294Z,1.42
2022-08-30T05:51:42.841Z,1.40
2022-08-30T05:54:13.524Z,1.30
2022-08-30T05:56:45.341Z,1.40
2022-08-30T05:59:14.826Z,1.25
2022-08-30T06:01:46.313Z,1.45
2022-08-30T06:04:15.632Z,1.60
2022-08-30T06:06:44.650Z,1.40
2022-08-30T06:09:14.412Z,1.52
2022-08-30T06:11:43.760Z,1.38
2022-08-30T06:14:12.894Z,1.30
2022-08-30T06:16:44.211Z,1.40
2022-08-30T06:21:42.497Z,1.40
2022-08-30T06:24:11.793Z,1.33
2022-08-30T06:26:43.321Z,1.42
2022-08-30T06:29:18.103Z,1.50
2022-08-30T06:31:47.186Z,1.27
2022-08-30T06:34:16.679Z,1.60
2022-08-30T06:36:45.559Z,1.38
2022-08-30T06:39:14.129Z,1.30
2022-08-30T06:41:42.666Z,1.50
2022-08-30T06:44:31.335Z,1.35
2022-08-30T06:46:59.768Z,1.40
2022-08-30T06:49:28.111Z,1.50
2022-08-30T06:51:56.877Z,1.42
2022-08-30T06:54:25.215Z,1.42
2022-08-30T06:56:58.590Z,1.40
2022-08-30T06:59:27.960Z,1.30
2022-08-30T07:01:56.555Z,1.52
2022-08-30T07:04:25.739Z,1.40
2022-08-30T07:06:54.221Z,1.40
2022-08-30T07:09:23.081Z,1.27
2022-08-30T07:11:53.242Z,1.30
2022-08-30T07:14:23.029Z,1.20
2022-08-30T07:16:52.042Z,1.90
2022-08-30T07:19:21.422Z,1.33
2022-08-30T07:21:50.870Z,1.45
2022-08-30T07:24:20.889Z,1.60
2022-08-30T07:26:52.051Z,1.40
2022-08-30T07:29:21.655Z,1.45
2022-08-30T07:31:50.185Z,1.35
2022-08-30T07:34:20.546Z,1.23
2022-08-30T07:36:51.146Z,1.45
2022-08-30T07:39:19.824Z,1.40
2022-08-30T07:41:48.906Z,1.58
2022-08-30T07:44:17.931Z,1.27
2022-08-30T07:46:46.338Z,1.52
2022-08-30T07:49:14.724Z,1.52
2022-08-30T07:51:43.305Z,1.40
2022-08-30T07:54:12.298Z,1.27
2022-08-30T07:56:40.602Z,1.50
2022-08-30T07:59:09.184Z,1.50
2022-08-30T08:01:37.512Z,1.40
2022-08-30T08:04:06.006Z,1.20
2022-08-30T08:06:40.264Z,1.40
2022-08-30T08:09:09.463Z,1.33
2022-08-30T08:11:39.965Z,1.40
2022-08-30T08:14:09.249Z,1.50
2022-08-30T08:16:38.338Z,1.30
2022-08-30T08:19:09.540Z,1.50
2022-08-30T08:21:38.589Z,1.17
2022-08-30T08:24:08.201Z,1.23
2022-08-30T08:26:38.285Z,1.40
2022-08-30T08:29:10.176Z,1.30
2022-08-30T08:31:38.800Z,1.35
2022-08-30T08:34:08.179Z,1.60
2022-08-30T08:36:36.818Z,1.60
2022-08-30T08:39:07.595Z,1.50
2022-08-30T08:41:59.541Z,1.30
2022-08-30T08:44:51.096Z,1.30
2022-08-30T08:47:31.917Z,1.33
2022-08-30T08:50:05.097Z,1.30
2022-08-30T08:53:36.110Z,1.23
2022-08-30T08:56:12.786Z,1.48
2022-08-30T08:58:51.498Z,1.55
2022-08-30T09:01:27.730Z,1.35
2022-08-30T09:03:57.936Z,1.20
2022-08-30T09:06:55.212Z,1.10
2022-08-30T09:09:35.726Z,1.35
2022-08-30T09:12:06.653Z,1.27
2022-08-30T09:14:46.592Z,1.40
2022-08-30T09:17:17.053Z,1.20
2022-08-30T09:20:05.022Z,1.23
2022-08-30T09:22:39.606Z,1.13
2022-08-30T09:25:09.584Z,1.45
2022-08-30T09:27:45.146Z,1.33
2022-08-30T09:30:23.170Z,1.50
2022-08-30T09:33:01.014Z,1.25
2022-08-30T09:35:39.334Z,1.50
2022-08-30T09:38:10.841Z,1.00
2022-08-30T09:40:48.462Z,1.33
2022-08-30T09:43:17.304Z,1.20
2022-08-30T09:46:08.395Z,1.30
2022-08-30T09:48:45.005Z,1.20
2022-08-30T09:51:13.387Z,1.40
2022-08-30T09:54:19.108Z,1.10
2022-08-30T09:57:12.706Z,1.20
2022-08-30T10:00:04.864Z,1.20
2022-08-30T10:03:05.009Z,1.20
2022-08-30T10:05:58.211Z,1.63
2022-08-30T10:08:43.792Z,1.17
2022-08-30T10:11:16.889Z,1.20
2022-08-30T10:14:00.378Z,1.00
2022-08-30T10:16:51.690Z,1.20
2022-08-30T10:19:48.835Z,1.30
2022-08-30T10:22:28.361Z,1.20
2022-08-30T10:25:16.064Z,1.00
2022-08-30T10:27:57.525Z,1.10
2022-08-30T10:30:28.009Z,1.20
2022-08-30T10:33:10.467Z,1.05
2022-08-30T10:35:50.767Z,1.20
2022-08-30T10:38:37.448Z,1.13
2022-08-30T10:41:28.537Z,1.25
2022-08-30T10:44:07.914Z,1.30
2022-08-30T10:47:12.344Z,1.10
2022-08-30T10:49:49.654Z,0.98
2022-08-30T10:52:52.021Z,1.00
2022-08-30T10:55:29.179Z,1.10
2022-08-30T10:58:02.971Z,1.30
2022-08-30T11:01:06.019Z,1.13
2022-08-30T11:03:51.948Z,1.00
2022-08-30T11:06:45.114Z,0.90
2022-08-30T11:09:16.353Z,1.23
2022-08-30T11:12:06.745Z,1.10
2022-08-30T11:14:41.493Z,1.10
2022-08-30T11:17:29.450Z,1.40
2022-08-30T11:20:01.044Z,1.10
2022-08-30T11:26:05.015Z,1.10
2022-08-30T11:28:36.605Z,0.95
2022-08-30T11:31:06.978Z,1.23
2022-08-30T11:33:53.653Z,1.10
2022-08-30T11:36:37.852Z,1.30
2022-08-30T11:39:51.312Z,1.00
2022-08-30T11:42:33.709Z,1.00
2022-08-30T11:45:22.215Z,1.10
2022-08-30T11:47:56.892Z,0.90
2022-08-30T11:50:55.528Z,1.10
2022-08-30T11:53:29.730Z,1.00
2022-08-30T11:56:08.862Z,0.88
2022-08-30T11:58:58.415Z,1.00
2022-08-30T12:01:42.331Z,1.00
2022-08-30T12:04:18.152Z,1.05
2022-08-30T12:07:00.566Z,1.05
2022-08-30T12:09:29.305Z,0.93
2022-08-30T12:12:02.573Z,0.95
2022-08-30T12:14:52.847Z,1.25
2022-08-30T12:17:51.090Z,1.00
2022-08-30T12:21:07.886Z,1.38
2022-08-30T12:23:44.265Z,1.00
2022-08-30T12:26:20.114Z,0.95
2022-08-30T12:28:49.756Z,1.20
2022-08-30T12:31:26.753Z,0.88
2022-08-30T12:34:00.564Z,1.15
2022-08-30T12:36:52.719Z,0.80
2022-08-30T12:39:42.974Z,1.00
2022-08-30T12:42:26.992Z,1.17
2022-08-30T12:44:59.972Z,1.10
2022-08-30T12:47:42.239Z,0.90
2022-08-30T12:50:16.785Z,0.90
2022-08-30T12:52:48.345Z,1.00
2022-08-30T12:55:24.091Z,0.90
2022-08-30T12:58:00.876Z,1.00
2022-08-30T13:00:45.275Z,1.20
2022-08-30T13:03:36.747Z,1.02
2022-08-30T13:06:10.212Z,1.10
2022-08-30T13:08:45.772Z,0.80
2022-08-30T13:11:29.586Z,1.20
2022-08-30T13:14:20.513Z,1.00
2022-08-30T13:16:49.534Z,1.15
2022-08-30T13:19:32.781Z,1.10
2022-08-30T13:22:02.293Z,1.10
2022-08-30T13:24:30.767Z,0.93
2022-08-30T13:27:06.525Z,0.80
2022-08-30T13:29:35.383Z,1.00
2022-08-30T13:32:03.929Z,0.90
2022-08-30T13:34:35.312Z,1.00
2022-08-30T13:37:04.275Z,0.82
2022-08-30T13:39:34.682Z,0.98
2022-08-30T13:44:54.113Z,0.95
2022-08-30T13:47:38.359Z,0.90
2022-08-30T13:50:07.959Z,0.88
2022-08-30T13:52:38.838Z,1.00
2022-08-30T13:55:07.972Z,1.10
2022-08-30T14:00:26.254Z,0.90
2022-08-30T14:02:59.987Z,0.90
2022-08-30T14:06:05.128Z,0.88
2022-08-30T14:08:48.156Z,1.10
2022-08-30T14:11:22.368Z,1.10
2022-08-30T14:16:43.610Z,1.10
2022-08-30T14:19:14.373Z,1.08
2022-08-30T14:21:43.844Z,1.10
2022-08-30T14:24:20.018Z,1.30
2022-08-30T14:26:51.822Z,1.13
2022-08-30T14:29:26.249Z,0.82
2022-08-30T14:31:59.670Z,0.90
2022-08-30T14:34:28.830Z,0.88
2022-08-30T14:36:58.299Z,0.70
2022-08-30T14:39:27.233Z,0.95
2022-08-30T14:41:56.471Z,1.10
2022-08-30T14:44:26.050Z,1.05
2022-08-30T14:46:55.540Z,1.13
2022-08-30T14:49:25.109Z,1.25
2022-08-30T14:51:55.830Z,1.17
2022-08-30T14:54:27.484Z,1.10
2022-08-30T14:56:56.067Z,1.00
2022-08-30T14:59:25.662Z,1.10
2022-08-30T15:01:54.329Z,1.08
2022-08-30T15:04:22.967Z,1.10
2022-08-30T15:06:52.175Z,0.90
2022-08-30T15:09:23.879Z,0.82
2022-08-30T15:11:56.617Z,0.93
2022-08-30T15:14:29.003Z,1.00
2022-08-30T15:16:59.560Z,0.90
2022-08-30T15:19:27.854Z,1.00
2022-08-30T15:22:04.610Z,1.00
2022-08-30T15:24:33.907Z,1.20
2022-08-30T15:27:02.885Z,1.00
2022-08-30T15:29:31.901Z,0.85
2022-08-30T15:32:02.506Z,0.95
2022-08-30T15:34:31.758Z,1.20
2022-08-30T15:37:00.682Z,1.10
2022-08-30T15:39:29.555Z,0.93
2022-08-30T15:42:01.017Z,1.10
2022-08-30T15:44:32.398Z,1.00
2022-08-30T15:47:03.964Z,0.90
2022-08-30T15:49:33.023Z,1.10
2022-08-30T15:52:03.504Z,1.00
2022-08-30T15:54:32.471Z,0.88
2022-08-30T15:57:01.473Z,0.93
2022-08-30T15:59:31.920Z,0.83
2022-08-30T16:02:00.819Z,1.10
2022-08-30T16:04:30.134Z,1.15
2022-08-30T16:06:58.418Z,0.95
2022-08-30T16:09:30.175Z,1.05
2022-08-30T16:12:04.672Z,0.98
2022-08-30T16:14:34.481Z,1.30
2022-08-30T16:17:03.140Z,1.00
2022-08-30T16:19:31.845Z,1.17
2022-08-30T16:22:00.275Z,1.10
2022-08-30T16:24:28.828Z,1.15
2022-08-30T16:26:57.673Z,1.10
2022-08-30T16:29:26.056Z,1.13
2022-08-30T16:31:55.511Z,1.02
2022-08-30T16:34:23.909Z,1.00
2022-08-30T16:36:54.250Z,1.00
2022-08-30T16:39:22.911Z,1.10
2022-08-30T16:41:51.708Z,1.13
2022-08-30T16:44:20.032Z,1.13
2022-08-30T16:46:53.223Z,1.23
2022-08-30T16:49:25.387Z,1.30
2022-08-30T16:51:54.673Z,1.10
2022-08-30T16:54:23.416Z,1.10
2022-08-30T16:56:51.958Z,1.38
2022-08-30T16:59:20.493Z,1.20
2022-08-30T17:01:49.212Z,1.30
2022-08-30T17:04:18.844Z,1.30
2022-08-30T17:06:49.948Z,1.10
2022-08-30T17:09:19.825Z,1.45
2022-08-30T17:11:49.015Z,1.50
2022-08-30T17:14:21.531Z,1.30
2022-08-30T17:16:52.152Z,1.17
2022-08-30T17:19:26.866Z,1.30
2022-08-30T17:24:46.843Z,1.00
2022-08-30T17:27:15.383Z,1.00
2022-08-30T17:29:44.592Z,1.10
2022-08-30T17:32:12.918Z,1.38
2022-08-30T17:34:41.397Z,0.85
2022-08-30T17:37:09.797Z,1.00
2022-08-30T17:39:38.417Z,0.90
2022-08-30T17:42:07.705Z,0.88
2022-08-30T17:44:38.110Z,0.90
2022-08-30T17:47:11.913Z,1.17
2022-08-30T17:49:40.191Z,0.98
2022-08-30T17:52:16.307Z,1.20
2022-08-30T17:54:45.105Z,0.90
2022-08-30T17:57:13.605Z,1.20
2022-08-30T17:59:43.283Z,0.90
2022-08-30T18:02:13.947Z,1.13
2022-08-30T18:04:43.269Z,0.80
2022-08-30T18:07:12.956Z,1.10
2022-08-30T18:09:42.660Z,1.20
2022-08-30T18:12:12.346Z,1.20
2022-08-30T18:17:10.782Z,0.93
2022-08-30T18:19:46.261Z,1.08
2022-08-30T18:22:16.512Z,1.02
2022-08-30T18:24:45.998Z,1.13
2022-08-30T18:27:15.584Z,1.40
2022-08-30T18:29:44.116Z,1.38
2022-08-30T18:32:13.153Z,1.17
2022-08-30T18:34:42.890Z,1.00
2022-08-30T18:37:12.652Z,1.33
2022-08-30T18:39:42.189Z,1.20
2022-08-30T18:42:10.893Z,1.05
2022-08-30T18:44:40.304Z,1.10
2022-08-30T18:47:12.438Z,1.05
2022-08-30T18:49:41.093Z,1.27
2022-08-30T18:52:10.317Z,1.20
2022-08-30T18:54:51.798Z,0.90
2022-08-30T18:57:22.555Z,1.20
2022-08-30T18:59:50.876Z,1.30
2022-08-30T19:02:19.881Z,1.20
2022-08-30T19:04:49.214Z,0.88
2022-08-30T19:07:19.488Z,1.08
2022-08-30T19:09:47.938Z,1.10
2022-08-30T19:12:16.590Z,1.55
2022-08-30T19:14:45.134Z,1.60
2022-08-30T19:17:14.224Z,1.40
2022-08-30T19:20:09.970Z,1.45
2022-08-30T19:23:08.469Z,1.38
2022-08-30T19:25:27.473Z,1.40
2022-08-30T19:27:57.527Z,1.27
2022-08-30T19:30:29.956Z,1.30
2022-08-30T19:32:58.719Z,1.40
2022-08-30T19:35:52.895Z,1.27
2022-08-30T19:38:21.541Z,1.30
2022-08-30T19:40:54.542Z,1.30
2022-08-30T19:43:24.587Z,1.70
2022-08-30T19:45:57.441Z,1.50
2022-08-30T19:48:32.204Z,1.60
2022-08-30T19:51:13.682Z,1.60
2022-08-30T19:53:42.960Z,1.50
2022-08-30T19:56:11.577Z,1.33
2022-08-30T19:58:41.917Z,1.50
2022-08-30T20:01:12.268Z,1.52
2022-08-30T20:03:54.055Z,1.73
2022-08-30T20:06:25.372Z,1.27
2022-08-30T20:08:57.642Z,1.65
2022-08-30T20:11:27.488Z,1.70
2022-08-30T20:14:13.553Z,1.40
2022-08-30T20:16:42.694Z,1.33
2022-08-30T20:19:16.143Z,1.42
2022-08-30T20:21:48.482Z,1.30
2022-08-30T20:24:23.738Z,1.00
2022-08-30T20:26:59.205Z,1.42
2022-08-30T20:29:30.716Z,1.50
2022-08-30T20:32:01.752Z,1.40
2022-08-30T20:34:30.165Z,1.97
2022-08-30T20:36:58.971Z,1.80
2022-08-30T20:39:27.604Z,2.05
2022-08-30T20:41:56.001Z,1.60
2022-08-30T20:44:24.357Z,2.20
2022-08-30T20:46:52.727Z,2.13
2022-08-30T20:49:24.353Z,1.85
2022-08-30T20:51:54.492Z,1.98
2022-08-30T20:54:23.651Z,1.70
2022-08-30T20:56:51.888Z,2.58
2022-08-30T20:59:21.114Z,1.90
2022-08-30T21:01:49.904Z,1.75
2022-08-30T21:04:18.934Z,2.00
2022-08-30T21:06:47.161Z,1.85
2022-08-30T21:09:15.662Z,1.83
2022-08-30T21:11:44.521Z,2.30
2022-08-30T21:14:13.317Z,1.88
2022-08-30T21:16:41.998Z,1.70
2022-08-30T21:19:10.471Z,2.00
2022-08-30T21:21:38.930Z,1.80
2022-08-30T21:24:10.169Z,1.90
2022-08-30T21:26:40.922Z,1.73
2022-08-30T21:29:09.997Z,1.90
2022-08-30T21:31:38.593Z,1.90
2022-08-30T21:34:07.240Z,1.73
2022-08-30T21:36:54.732Z,1.67
2022-08-30T21:39:26.448Z,1.90
2022-08-30T21:41:57.093Z,1.92
2022-08-30T21:44:26.826Z,2.00
2022-08-30T21:46:56.397Z,3.28
2022-08-30T21:49:24.653Z,2.00
2022-08-30T21:51:54.838Z,1.80
2022-08-30T21:54:24.420Z,1.77
2022-08-30T21:56:54.781Z,1.83
2022-08-30T21:59:23.239Z,1.77
2022-08-30T22:01:51.982Z,1.83
2022-08-30T22:04:25.670Z,1.63
2022-08-30T22:06:54.881Z,1.88
2022-08-30T22:09:25.177Z,1.50
2022-08-30T22:11:54.267Z,2.13
2022-08-30T22:14:24.488Z,1.75
2022-08-30T22:16:55.047Z,1.60
2022-08-30T22:19:24.254Z,1.80
2022-08-30T22:21:56.364Z,1.60
2022-08-30T22:24:32.885Z,1.98
2022-08-30T22:27:02.858Z,1.70
2022-08-30T22:29:31.646Z,1.63
2022-08-30T22:32:00.649Z,1.90
2022-08-30T22:34:29.859Z,1.70
2022-08-30T22:36:59.080Z,2.00
2022-08-30T22:39:27.767Z,1.85
2022-08-30T22:41:56.364Z,1.50
2022-08-30T22:44:25.614Z,1.88
2022-08-30T22:46:54.106Z,2.10
2022-08-30T22:49:22.534Z,1.80
2022-08-30T22:51:51.189Z,1.73
2022-08-30T22:54:19.822Z,1.73
2022-08-30T22:56:48.877Z,1.83
2022-08-30T22:59:17.449Z,1.70
2022-08-30T23:01:47.231Z,1.70
2022-08-30T23:04:15.732Z,1.65
2022-08-30T23:06:50.085Z,1.83
2022-08-30T23:09:19.014Z,1.83
2022-08-30T23:11:47.505Z,1.65
2022-08-30T23:14:15.716Z,1.77
2022-08-30T23:16:44.377Z,1.92
2022-08-30T23:19:13.004Z,1.77
2022-08-30T23:21:41.618Z,2.03
2022-08-30T23:24:28.527Z,1.75
2022-08-30T23:27:15.561Z,2.00
2022-08-30T23:30:02.485Z,1.80
2022-08-30T23:32:49.470Z,1.73
2022-08-30T23:35:36.346Z,1.73
2022-08-30T23:38:24.982Z,1.90
2022-08-30T23:41:11.796Z,1.90
2022-08-30T23:43:58.792Z,1.83
2022-08-30T23:46:45.772Z,1.77
2022-08-30T23:49:32.639Z,1.75
2022-08-30T23:52:19.387Z,2.15
2022-08-30T23:55:06.315Z,2.78
2022-08-30T23:57:53.375Z,1.85
